Aeroporto :
LOGIN :

Iscrizione | Disclaimer

   EN    FR    IT 

 










Sommario :    VFR   VFR Marginale   IFR   IFR Intensivo   IFR Molto Intensivo
Visibilità : 
Base nubi : 
>= 8 km
>= 3000ft
5 / 8 km
1000 / 3000 ft
1500m / 5 km
500 / 1000 ft
800 / 1500m
200 / 500 ft
< 800m
< 200 ft
Simboli :   Temporali  Nebbia  Neve Forte  Precipitazioni Forti  Vento > 20 kt
SIGMETs :   Varie  Temporali  Ghiacco  Turbolenza  Onda orograficha  Ceneri Vulcaniche







- Altitudine del aeroporto : 1487 ft
- Codice IATA : MUC


EDDM - München Franz Josef Strauss

ULTIMO METAR :
  • 222220Z 08011KT 030V100 CAVOK 14/03 Q1003 NOSIG

METARs OBSOLETI :
  • 222150Z 07012KT CAVOK 15/03 Q1004 NOSIG
  • 222120Z 07013KT CAVOK 15/02 Q1004 NOSIG
  • 222050Z 08013KT CAVOK 16/02 Q1004 NOSIG
  • 222020Z 07012KT CAVOK 16/02 Q1005 NOSIG
  • 221950Z 08012KT CAVOK 16/02 Q1005 NOSIG

TAF TAF EDDM
Valido dal 22 a 18 ore il 24 a 00 ore UTC


221700Z 2218/2324 08012KT CAVOK
BECMG 2218/2220 07007KT
BECMG 2306/2308 08012KT
TEMPO 2312/2317 09015G25KT
BECMG 2320/2322 08006KT
Nessun NOTAM noto per questo aeroporto.



MetMap, La meteo Aeronautica in un colpo d'occhio ! - Copyright ORBIFLY Dicembre 2007 - Disclaimer

ORBIFLY MET'MAP TEAM :

Programmazione e sviluppo : Alexandra Zaïnal
Concezione e sviluppo : Baudouin d'Aumeries
Co-Programmazione e sviluppo : Marc-Olivier Méhu
Supporto tecnico e logistico : Manuel Goepfert
Aiuto per la traduzione : Arnaldo La Scala

Contatto : metmap@orbifly.com




FONTI E CREDITI :

   NOAA